Time;durP1;ratioP1;P1;durP2;ratioP2;P2;SDS_P1;SDS_P2;PMS_P1;PMS_P2;Temp;Humidity;BMP_temperature;BMP_pressure;BME280_temperature;BME280_humidity;BME280_pressure;Samples;Min_cycle;Max_cycle;Signal;HPM_P1;HPM_P2
2021/12/13 00:03:23;;;;;;;12.13;6.93;;;6.80;99.90;;;;;;10393617;28;20256;-69
2021/12/13 00:08:29;;;;;;;8.90;6.67;;;6.80;99.90;;;;;;10398945;28;20228;-70
2021/12/13 00:13:39;;;;;;;8.97;6.60;;;6.90;99.90;;;;;;10396317;28;20225;-71
2021/12/13 00:18:44;;;;;;;10.73;6.67;;;6.90;99.90;;;;;;10403809;28;20229;-69
2021/12/13 00:23:55;;;;;;;13.23;6.80;;;6.90;99.90;;;;;;10393371;28;20221;-69
2021/12/13 00:28:57;;;;;;;10.10;7.03;;;6.90;99.90;;;;;;10392016;28;20240;-70
2021/12/13 00:34:26;;;;;;;9.97;6.50;;;6.90;99.90;;;;;;10387834;28;20252;-70
2021/12/13 00:39:34;;;;;;;11.47;6.50;;;7.00;99.90;;;;;;10389492;28;20232;-71
2021/12/13 00:44:42;;;;;;;11.83;7.03;;;7.00;99.90;;;;;;10391885;28;20217;-70
2021/12/13 00:49:48;;;;;;;10.03;7.17;;;7.00;99.90;;;;;;10401971;28;20233;-69
2021/12/13 00:54:51;;;;;;;9.90;6.93;;;7.00;99.90;;;;;;10415438;28;20259;-68
2021/12/13 01:00:03;;;;;;;10.60;6.97;;;7.00;99.90;;;;;;10398808;28;20823;-70
2021/12/13 01:05:16;;;;;;;11.23;7.30;;;7.00;99.90;;;;;;10404853;28;20228;-69
2021/12/13 01:10:38;;;;;;;13.40;7.93;;;6.90;99.90;;;;;;10388896;28;20308;-69
2021/12/13 01:15:48;;;;;;;10.40;7.80;;;6.90;99.90;;;;;;10399612;28;20224;-70
2021/12/13 01:21:56;;;;;;;12.70;7.53;;;6.90;99.90;;;;;;10394333;28;20225;-71
2021/12/13 01:26:38;;;;;;;11.17;7.50;;;6.90;99.90;;;;;;10388599;28;20422;-70
2021/12/13 01:31:53;;;;;;;12.83;7.97;;;6.90;99.90;;;;;;10402841;28;20275;-69
2021/12/13 01:37:12;;;;;;;11.33;7.70;;;6.90;99.90;;;;;;10395338;28;20630;-70
2021/12/13 01:42:29;;;;;;;11.40;8.03;;;6.90;99.90;;;;;;10391357;28;20510;-69
2021/12/13 01:47:37;;;;;;;9.27;7.10;;;6.90;99.90;;;;;;10392843;28;20228;-70
2021/12/13 01:52:41;;;;;;;13.30;8.00;;;7.00;99.90;;;;;;10387164;28;20654;-69
2021/12/13 01:58:18;;;;;;;12.60;8.07;;;7.00;99.90;;;;;;10393851;28;20232;-70
2021/12/13 02:03:04;;;;;;;12.67;8.07;;;7.00;99.90;;;;;;10386472;28;20225;-70
2021/12/13 02:08:11;;;;;;;14.37;8.67;;;7.00;99.90;;;;;;10388913;28;20311;-70
2021/12/13 02:13:23;;;;;;;12.23;7.57;;;7.00;99.90;;;;;;10393342;28;20229;-69
2021/12/13 02:18:30;;;;;;;12.37;7.63;;;7.00;99.90;;;;;;10388357;28;20276;-68
2021/12/13 02:23:33;;;;;;;11.50;7.60;;;7.00;99.90;;;;;;10390621;28;20220;-68
2021/12/13 02:28:36;;;;;;;11.63;7.47;;;7.00;99.90;;;;;;10393925;28;20688;-70
2021/12/13 02:33:42;;;;;;;11.63;8.20;;;7.00;99.90;;;;;;10392444;28;20221;-69
2021/12/13 02:38:46;;;;;;;10.83;7.23;;;7.00;99.90;;;;;;10393472;28;20704;-69
2021/12/13 02:43:51;;;;;;;10.80;7.63;;;7.00;99.90;;;;;;10394804;28;20227;-69
2021/12/13 02:48:57;;;;;;;12.23;8.03;;;7.00;99.90;;;;;;10390005;28;20212;-69
2021/12/13 02:54:16;;;;;;;13.90;9.40;;;7.00;99.90;;;;;;10385004;28;20924;-69
2021/12/13 02:59:20;;;;;;;14.00;9.70;;;7.00;99.90;;;;;;10388533;28;20233;-69
2021/12/13 03:04:24;;;;;;;14.90;9.90;;;6.90;99.90;;;;;;10391208;28;20218;-69
2021/12/13 03:09:29;;;;;;;14.37;9.53;;;6.80;99.90;;;;;;10386152;28;20226;-69
2021/12/13 03:14:34;;;;;;;13.77;9.80;;;6.80;99.90;;;;;;10395102;28;20236;-69
2021/12/13 03:19:38;;;;;;;14.60;9.17;;;6.80;99.90;;;;;;10390804;28;20244;-69
2021/12/13 03:25:33;;;;;;;16.80;9.43;;;6.80;99.90;;;;;;10387163;28;20221;-69
2021/12/13 03:31:13;;;;;;;13.50;9.63;;;6.80;99.90;;;;;;10306013;28;20224;-70
2021/12/13 03:36:16;;;;;;;16.73;11.00;;;6.80;99.90;;;;;;10327162;28;20232;-70
2021/12/13 03:41:24;;;;;;;15.30;10.47;;;6.80;99.90;;;;;;10400121;28;20236;-69
2021/12/13 03:46:28;;;;;;;13.57;11.17;;;6.70;99.90;;;;;;10393176;28;20597;-69
2021/12/13 03:51:38;;;;;;;16.53;11.63;;;6.70;99.90;;;;;;10403259;28;20685;-69
2021/12/13 03:56:47;;;;;;;16.50;11.07;;;6.70;99.90;;;;;;10397392;28;20313;-69
2021/12/13 04:01:55;;;;;;;15.27;10.47;;;6.70;99.90;;;;;;10391865;28;20283;-69
2021/12/13 04:07:05;;;;;;;14.90;11.20;;;6.70;99.90;;;;;;10390825;28;20229;-69
2021/12/13 04:12:07;;;;;;;17.83;11.90;;;6.60;99.90;;;;;;10394655;28;20379;-69
2021/12/13 04:17:35;;;;;;;16.83;11.83;;;6.70;99.90;;;;;;10400148;28;20212;-69
2021/12/13 04:22:40;;;;;;;14.27;11.53;;;6.80;99.90;;;;;;10392238;28;20317;-69
2021/12/13 04:27:53;;;;;;;14.40;10.83;;;6.80;99.90;;;;;;10395923;28;20232;-68
2021/12/13 04:32:58;;;;;;;13.97;11.03;;;6.70;99.90;;;;;;10389103;28;20238;-69
2021/12/13 04:38:03;;;;;;;16.27;11.40;;;6.80;99.90;;;;;;10391381;28;20229;-69
2021/12/13 04:43:13;;;;;;;13.37;10.67;;;6.80;99.90;;;;;;10388656;28;20362;-68
2021/12/13 04:48:17;;;;;;;15.37;10.43;;;6.70;99.90;;;;;;10396139;28;20221;-70
2021/12/13 04:53:31;;;;;;;15.33;10.80;;;6.70;99.90;;;;;;10394164;28;20233;-69
2021/12/13 04:58:32;;;;;;;16.57;10.67;;;6.70;99.90;;;;;;10397330;28;20289;-69
2021/12/13 05:03:39;;;;;;;14.07;10.90;;;6.80;99.90;;;;;;10396523;28;20221;-69
2021/12/13 05:08:43;;;;;;;13.67;10.33;;;6.80;99.90;;;;;;10403690;28;20225;-68
2021/12/13 05:13:54;;;;;;;15.20;10.43;;;6.80;99.90;;;;;;10388115;28;20258;-69
2021/12/13 05:18:56;;;;;;;14.33;10.63;;;6.90;99.90;;;;;;10398942;28;20762;-68
2021/12/13 05:24:00;;;;;;;17.23;10.70;;;6.90;99.90;;;;;;10394696;28;20271;-69
2021/12/13 05:29:05;;;;;;;16.70;11.00;;;6.90;99.90;;;;;;10399204;28;20224;-68
2021/12/13 05:34:07;;;;;;;14.57;9.93;;;6.90;99.90;;;;;;10388767;28;20231;-69
2021/12/13 05:39:16;;;;;;;16.87;10.30;;;6.90;99.90;;;;;;10383766;28;20224;-69
2021/12/13 05:44:25;;;;;;;14.20;10.03;;;6.90;99.90;;;;;;10381487;28;20276;-68
2021/12/13 05:49:40;;;;;;;14.90;11.03;;;6.90;99.90;;;;;;10384527;28;20217;-68
2021/12/13 05:54:44;;;;;;;14.70;11.03;;;6.90;99.90;;;;;;10394325;28;20229;-69
2021/12/13 05:59:51;;;;;;;13.37;10.27;;;6.90;99.90;;;;;;10390376;28;20283;-69
2021/12/13 06:04:56;;;;;;;15.93;11.13;;;6.90;99.90;;;;;;10387757;28;20206;-68
2021/12/13 06:10:01;;;;;;;16.03;10.83;;;6.90;99.90;;;;;;10403614;28;20680;-68
2021/12/13 06:15:32;;;;;;;15.77;11.07;;;6.90;99.90;;;;;;10397168;28;20216;-69
2021/12/13 06:20:48;;;;;;;12.87;10.40;;;6.90;99.90;;;;;;10404223;28;20233;-69
2021/12/13 06:25:57;;;;;;;14.23;10.93;;;6.90;99.90;;;;;;10383801;28;20267;-69
2021/12/13 06:31:01;;;;;;;14.77;10.40;;;6.80;99.90;;;;;;10398716;28;20243;-70
2021/12/13 06:36:03;;;;;;;13.83;9.77;;;6.80;99.90;;;;;;10404150;28;20220;-71
2021/12/13 06:41:09;;;;;;;12.50;10.20;;;6.80;99.90;;;;;;10404034;28;20758;-69
2021/12/13 06:46:35;;;;;;;15.30;10.07;;;6.80;99.90;;;;;;10403869;28;20573;-70
2021/12/13 06:51:53;;;;;;;11.67;9.67;;;6.80;99.90;;;;;;10385864;28;20223;-67
2021/12/13 06:57:01;;;;;;;12.00;9.67;;;6.90;99.90;;;;;;10384247;28;20355;-67
2021/12/13 07:02:16;;;;;;;13.60;10.50;;;6.90;99.90;;;;;;10410568;28;20251;-70
2021/12/13 07:07:21;;;;;;;13.23;10.07;;;6.90;99.90;;;;;;10408037;28;20212;-69
2021/12/13 07:12:24;;;;;;;11.97;9.90;;;6.90;99.90;;;;;;10411728;28;20220;-71
2021/12/13 07:17:35;;;;;;;14.20;9.87;;;6.90;99.90;;;;;;10400895;28;20229;-71
2021/12/13 07:22:37;;;;;;;10.73;9.30;;;6.90;99.90;;;;;;10404230;28;20221;-72
2021/12/13 07:27:46;;;;;;;13.83;10.00;;;6.90;99.90;;;;;;10404757;28;20216;-70
2021/12/13 07:32:47;;;;;;;10.23;9.13;;;6.90;99.90;;;;;;10389278;28;20221;-72
2021/12/13 07:37:48;;;;;;;12.73;9.60;;;7.00;99.90;;;;;;10395187;28;20221;-69
2021/12/13 07:43:08;;;;;;;11.60;9.40;;;7.00;99.90;;;;;;10400259;28;20208;-70
2021/12/13 07:48:18;;;;;;;11.90;9.20;;;7.10;99.90;;;;;;10405083;28;20229;-69
2021/12/13 07:53:18;;;;;;;12.73;9.40;;;7.20;99.90;;;;;;10396113;28;20225;-71
2021/12/13 07:58:45;;;;;;;12.27;8.60;;;7.30;99.90;;;;;;10401314;28;20306;-71
2021/12/13 08:04:07;;;;;;;10.50;8.70;;;7.30;99.90;;;;;;10397001;28;20594;-70
2021/12/13 08:09:19;;;;;;;10.87;8.17;;;7.40;99.90;;;;;;10406455;28;20228;-72
2021/12/13 08:14:37;;;;;;;10.33;8.03;;;7.50;99.90;;;;;;10411186;28;20634;-72
2021/12/13 08:19:38;;;;;;;11.97;8.57;;;7.70;99.90;;;;;;10399284;28;20270;-72
2021/12/13 08:24:44;;;;;;;10.87;7.87;;;7.80;99.90;;;;;;10402456;28;20218;-71
2021/12/13 08:29:45;;;;;;;9.50;7.87;;;7.90;99.90;;;;;;10396201;28;20236;-73
2021/12/13 08:34:56;;;;;;;11.40;7.80;;;8.00;99.90;;;;;;10401663;28;20221;-72
2021/12/13 08:40:05;;;;;;;9.50;7.83;;;8.00;99.90;;;;;;10388130;28;20310;-72
2021/12/13 08:45:33;;;;;;;9.57;7.47;;;8.10;99.90;;;;;;10404321;28;20263;-72
2021/12/13 08:50:42;;;;;;;10.57;8.13;;;8.10;99.90;;;;;;10402572;28;20214;-71
2021/12/13 08:55:51;;;;;;;10.57;8.27;;;8.20;99.90;;;;;;10395982;28;20218;-72
2021/12/13 09:00:59;;;;;;;9.50;7.63;;;8.20;99.90;;;;;;10392512;28;20230;-72
2021/12/13 09:06:18;;;;;;;9.93;7.93;;;8.30;99.90;;;;;;10404924;28;20791;-71
2021/12/13 09:11:25;;;;;;;10.70;8.50;;;8.30;99.90;;;;;;10396781;28;20227;-72
2021/12/13 09:17:07;;;;;;;11.83;8.17;;;8.40;99.90;;;;;;10402924;28;20839;-72
2021/12/13 09:22:16;;;;;;;8.27;7.23;;;8.60;99.90;;;;;;10363783;28;20242;-71
2021/12/13 09:27:29;;;;;;;9.77;7.87;;;8.70;99.90;;;;;;10384343;28;20235;-71
2021/12/13 09:32:48;;;;;;;9.73;8.37;;;8.90;99.90;;;;;;10392847;28;20255;-71
2021/12/13 09:37:51;;;;;;;10.20;7.70;;;8.90;99.90;;;;;;10408942;28;20249;-70
2021/12/13 09:42:55;;;;;;;11.40;8.37;;;9.00;99.90;;;;;;10384370;28;20228;-71
2021/12/13 09:47:56;;;;;;;10.47;7.33;;;9.20;99.90;;;;;;10389761;28;20646;-72
2021/12/13 09:53:03;;;;;;;9.97;7.97;;;9.30;99.90;;;;;;10384734;28;20319;-71
2021/12/13 09:58:17;;;;;;;8.87;7.10;;;9.30;99.90;;;;;;10412088;28;20214;-73
2021/12/13 10:03:25;;;;;;;8.80;7.60;;;9.40;99.90;;;;;;10389441;28;20902;-70
2021/12/13 10:08:36;;;;;;;10.63;7.83;;;9.50;99.90;;;;;;10397616;28;20226;-71
2021/12/13 10:13:40;;;;;;;9.40;7.53;;;9.50;99.90;;;;;;10379195;28;20328;-71
2021/12/13 10:18:44;;;;;;;11.23;7.97;;;9.50;99.90;;;;;;10391668;28;20234;-72
2021/12/13 10:23:53;;;;;;;8.50;7.37;;;9.60;99.90;;;;;;10394901;28;20218;-72
2021/12/13 10:28:56;;;;;;;9.27;7.90;;;9.80;99.90;;;;;;10393036;28;20215;-71
2021/12/13 10:34:02;;;;;;;10.50;8.50;;;9.90;99.90;;;;;;10384730;28;20289;-71
2021/12/13 10:39:09;;;;;;;11.27;8.47;;;10.10;99.90;;;;;;10398553;28;20269;-70
2021/12/13 10:44:15;;;;;;;9.53;8.43;;;10.20;99.90;;;;;;10394421;28;20219;-71
2021/12/13 10:49:21;;;;;;;10.87;8.30;;;10.10;99.90;;;;;;10396191;28;20294;-72
2021/12/13 10:54:30;;;;;;;12.60;9.80;;;10.20;99.90;;;;;;10388347;28;20768;-71
2021/12/13 10:59:33;;;;;;;11.53;9.23;;;10.10;99.90;;;;;;10401522;28;20281;-70
2021/12/13 11:04:41;;;;;;;12.20;9.10;;;10.20;99.90;;;;;;10396475;28;20312;-70
2021/12/13 11:09:45;;;;;;;11.27;9.07;;;10.30;99.90;;;;;;10385558;28;20317;-71
2021/12/13 11:14:49;;;;;;;11.37;8.93;;;10.40;99.90;;;;;;10379958;28;20230;-71
2021/12/13 11:19:53;;;;;;;14.47;11.10;;;10.30;99.90;;;;;;10399727;28;20229;-70
2021/12/13 11:24:58;;;;;;;11.17;9.50;;;10.20;99.90;;;;;;10393464;28;20289;-70
2021/12/13 11:30:02;;;;;;;12.27;9.67;;;10.20;99.90;;;;;;10396369;28;20212;-72
2021/12/13 11:35:15;;;;;;;10.90;8.50;;;10.20;99.90;;;;;;10392120;28;20245;-71
2021/12/13 11:40:31;;;;;;;11.87;8.83;;;10.30;99.90;;;;;;10394057;28;20223;-71
2021/12/13 11:45:53;;;;;;;10.33;8.90;;;10.40;99.90;;;;;;10399986;28;20234;-71
2021/12/13 11:51:32;;;;;;;10.77;8.07;;;10.40;99.90;;;;;;10397577;28;20226;-70
2021/12/13 11:57:04;;;;;;;18.00;8.40;;;10.50;99.90;;;;;;10399290;28;20218;-70
2021/12/13 12:02:10;;;;;;;10.53;8.10;;;10.60;99.90;;;;;;10408569;28;20302;-70
2021/12/13 12:07:13;;;;;;;9.67;7.47;;;10.70;99.90;;;;;;10406949;28;20278;-70
2021/12/13 12:12:32;;;;;;;10.03;7.07;;;10.70;99.90;;;;;;10397555;28;20250;-70
2021/12/13 12:17:34;;;;;;;11.50;7.40;;;10.70;99.90;;;;;;10391549;28;20922;-71
2021/12/13 12:22:59;;;;;;;8.40;6.63;;;10.90;99.90;;;;;;10399796;28;20238;-70
2021/12/13 12:28:13;;;;;;;11.10;6.93;;;11.10;99.90;;;;;;10397075;28;20219;-72
2021/12/13 12:33:38;;;;;;;9.00;7.27;;;11.10;99.90;;;;;;10410500;28;20224;-71
2021/12/13 12:39:06;;;;;;;11.37;7.97;;;11.10;99.90;;;;;;10400054;28;20818;-70
2021/12/13 12:44:08;;;;;;;10.63;8.27;;;11.00;99.90;;;;;;10389278;28;20245;-70
2021/12/13 12:49:22;;;;;;;11.63;8.57;;;11.00;99.90;;;;;;10399120;28;20224;-70
2021/12/13 12:54:23;;;;;;;11.70;9.00;;;10.90;99.90;;;;;;10403976;28;20587;-71
2021/12/13 12:59:28;;;;;;;11.93;9.10;;;11.00;99.90;;;;;;10389583;28;20231;-72
2021/12/13 13:04:36;;;;;;;11.83;9.20;;;10.90;99.90;;;;;;10402058;28;20311;-72
2021/12/13 13:09:48;;;;;;;11.97;8.43;;;10.80;99.90;;;;;;10394311;28;20682;-72
2021/12/13 13:14:54;;;;;;;13.23;8.37;;;10.70;99.90;;;;;;10418595;28;20230;-71
2021/12/13 13:20:00;;;;;;;12.83;8.90;;;10.70;99.90;;;;;;10408118;28;20251;-70
2021/12/13 13:25:08;;;;;;;11.37;9.20;;;10.60;99.90;;;;;;10404999;28;20282;-72
2021/12/13 13:30:37;;;;;;;16.87;8.40;;;10.50;99.90;;;;;;10403874;28;20229;-71
2021/12/13 13:35:38;;;;;;;10.60;8.43;;;10.50;99.90;;;;;;10396500;28;20245;-71
2021/12/13 13:40:39;;;;;;;11.17;8.27;;;10.50;99.90;;;;;;10391397;28;20231;-70
2021/12/13 13:45:46;;;;;;;13.30;8.17;;;10.50;99.90;;;;;;10382902;28;20222;-71
2021/12/13 13:50:50;;;;;;;10.23;8.80;;;10.40;99.90;;;;;;10397565;28;20528;-71
2021/12/13 13:56:05;;;;;;;13.07;8.50;;;10.40;99.90;;;;;;10398568;28;20223;-71
2021/12/13 14:01:19;;;;;;;10.93;8.10;;;10.30;99.90;;;;;;10396261;28;20333;-72
2021/12/13 14:06:23;;;;;;;10.90;8.70;;;10.20;99.90;;;;;;10388374;28;20228;-70
2021/12/13 14:11:25;;;;;;;13.17;7.93;;;10.20;99.90;;;;;;10389330;28;20230;-71
2021/12/13 14:16:28;;;;;;;14.00;8.40;;;10.10;99.90;;;;;;10404048;28;20275;-71
2021/12/13 14:21:31;;;;;;;16.00;9.60;;;10.10;99.90;;;;;;10398507;28;20225;-71
2021/12/13 14:26:32;;;;;;;15.10;7.80;;;10.00;99.90;;;;;;10388470;28;20219;-72
2021/12/13 14:31:41;;;;;;;10.87;7.97;;;10.00;99.90;;;;;;10392141;28;20217;-71
2021/12/13 14:36:48;;;;;;;11.60;8.70;;;9.90;99.90;;;;;;10391126;28;20277;-71
2021/12/13 14:41:58;;;;;;;12.13;8.20;;;9.80;99.90;;;;;;10393311;28;20705;-71
2021/12/13 14:47:04;;;;;;;11.53;8.27;;;9.70;99.90;;;;;;10408585;28;20223;-72
2021/12/13 14:52:08;;;;;;;16.97;9.00;;;9.60;99.90;;;;;;10397587;28;20776;-71
2021/12/13 14:57:14;;;;;;;12.63;8.77;;;9.60;99.90;;;;;;10390314;28;20724;-71
2021/12/13 15:02:24;;;;;;;13.27;9.00;;;9.50;99.90;;;;;;10392543;28;20231;-71
2021/12/13 15:07:29;;;;;;;12.40;8.10;;;9.50;99.90;;;;;;10398232;28;20215;-72
2021/12/13 15:12:37;;;;;;;9.60;8.07;;;9.40;99.90;;;;;;10394702;28;20216;-72
2021/12/13 15:17:41;;;;;;;10.57;7.93;;;9.40;99.90;;;;;;10378023;28;20220;-71
2021/12/13 15:22:50;;;;;;;11.03;8.40;;;9.30;99.90;;;;;;10399782;28;20814;-71
2021/12/13 15:27:52;;;;;;;10.70;8.33;;;9.30;99.90;;;;;;10396260;28;20507;-70
2021/12/13 15:32:57;;;;;;;11.47;7.83;;;9.20;99.90;;;;;;10405529;28;20215;-70
2021/12/13 15:38:01;;;;;;;11.23;8.00;;;9.30;99.90;;;;;;10401804;28;20685;-70
2021/12/13 15:43:22;;;;;;;10.90;8.07;;;9.20;99.90;;;;;;10407176;28;20217;-69
2021/12/13 15:53:53;;;;;;;14.30;8.13;;;9.10;99.90;;;;;;10400311;28;20258;-69
2021/12/13 15:59:06;;;;;;;10.50;8.30;;;9.10;99.90;;;;;;10405386;28;20747;-72
2021/12/13 16:04:11;;;;;;;14.93;8.87;;;9.10;99.90;;;;;;10401351;28;20219;-71
2021/12/13 16:09:20;;;;;;;12.10;8.83;;;9.10;99.90;;;;;;10388377;28;20268;-70
2021/12/13 16:14:32;;;;;;;16.17;8.87;;;9.10;99.90;;;;;;10387632;28;20534;-71
2021/12/13 16:19:36;;;;;;;13.67;9.50;;;9.10;99.90;;;;;;10404565;28;20949;-72
2021/12/13 16:24:36;;;;;;;12.87;8.43;;;9.10;99.90;;;;;;10403788;28;20234;-72
2021/12/13 16:29:38;;;;;;;13.77;8.43;;;9.10;99.90;;;;;;10396154;28;20227;-71
2021/12/13 16:34:42;;;;;;;15.63;8.53;;;9.10;99.90;;;;;;10395647;28;20245;-72
2021/12/13 16:39:44;;;;;;;10.40;7.90;;;9.10;99.90;;;;;;10387999;28;20222;-71
2021/12/13 16:44:49;;;;;;;9.97;7.93;;;9.10;99.90;;;;;;10387986;28;20224;-72
2021/12/13 16:49:53;;;;;;;11.63;8.27;;;9.00;99.90;;;;;;10402995;28;20220;-71
2021/12/13 16:55:06;;;;;;;16.53;9.40;;;9.00;99.90;;;;;;10399113;28;20222;-72
2021/12/13 17:00:18;;;;;;;11.83;8.67;;;9.00;99.90;;;;;;10402461;28;20233;-71
2021/12/13 17:05:29;;;;;;;11.10;8.53;;;8.90;99.90;;;;;;10395013;28;20221;-71
2021/12/13 17:10:37;;;;;;;10.57;8.60;;;8.90;99.90;;;;;;10398763;28;20219;-71
2021/12/13 17:15:55;;;;;;;12.30;9.50;;;8.90;99.90;;;;;;10391048;28;20687;-71
2021/12/13 17:21:16;;;;;;;10.63;8.40;;;8.90;99.90;;;;;;10401399;28;20257;-72
2021/12/13 17:26:29;;;;;;;12.20;8.87;;;9.00;99.90;;;;;;10377658;28;20232;-71
2021/12/13 17:31:49;;;;;;;12.03;9.67;;;9.00;99.90;;;;;;10398766;28;20553;-71
2021/12/13 17:36:49;;;;;;;9.93;8.17;;;9.00;99.90;;;;;;10402503;28;20226;-71
2021/12/13 17:41:58;;;;;;;10.90;8.37;;;9.00;99.90;;;;;;10382673;28;20235;-71
2021/12/13 17:47:00;;;;;;;12.13;7.93;;;9.00;99.90;;;;;;10395762;28;20239;-72
2021/12/13 17:52:02;;;;;;;9.40;7.30;;;9.00;99.90;;;;;;10400929;28;20220;-72
2021/12/13 17:57:03;;;;;;;11.83;7.77;;;8.90;99.90;;;;;;10399203;28;20262;-73
2021/12/13 18:02:08;;;;;;;13.70;8.60;;;9.00;99.90;;;;;;10377917;28;20246;-71
2021/12/13 18:07:11;;;;;;;11.10;8.20;;;9.00;99.90;;;;;;10390008;28;20226;-71
2021/12/13 18:12:31;;;;;;;13.60;9.60;;;9.00;99.90;;;;;;10406320;28;20798;-72
2021/12/13 18:18:07;;;;;;;14.73;8.53;;;9.00;99.90;;;;;;10406562;28;20238;-71
2021/12/13 18:23:22;;;;;;;10.27;7.70;;;8.90;99.90;;;;;;10393199;28;20219;-71
2021/12/13 18:28:31;;;;;;;14.37;10.37;;;8.90;99.90;;;;;;10400033;28;20243;-72
2021/12/13 18:33:44;;;;;;;17.40;10.43;;;8.90;99.90;;;;;;10397985;28;20235;-71
2021/12/13 18:38:58;;;;;;;11.03;8.03;;;8.90;99.90;;;;;;10392583;28;20640;-70
2021/12/13 18:44:25;;;;;;;17.83;11.93;;;9.00;99.90;;;;;;10393221;28;20234;-71
2021/12/13 18:49:34;;;;;;;11.70;9.07;;;9.00;99.90;;;;;;10404052;28;20223;-71
2021/12/13 18:55:09;;;;;;;17.00;11.27;;;9.10;99.90;;;;;;10393537;28;20382;-71
2021/12/13 19:00:24;;;;;;;16.53;11.37;;;9.10;99.90;;;;;;10398948;28;20699;-72
2021/12/13 19:05:40;;;;;;;14.73;12.20;;;9.10;99.90;;;;;;10408384;28;20221;-70
2021/12/13 19:10:46;;;;;;;12.33;8.53;;;9.10;99.90;;;;;;10392201;28;20762;-71
2021/12/13 19:15:52;;;;;;;14.00;10.53;;;9.20;99.90;;;;;;10393096;28;20215;-71
2021/12/13 19:21:05;;;;;;;11.03;8.90;;;9.20;99.90;;;;;;10405269;28;20383;-71
2021/12/13 19:26:15;;;;;;;12.10;8.40;;;9.10;99.90;;;;;;10393337;28;20276;-72
2021/12/13 19:31:22;;;;;;;11.00;8.17;;;9.10;99.90;;;;;;10397468;28;20215;-71
2021/12/13 19:36:33;;;;;;;14.17;10.40;;;9.10;99.90;;;;;;10399179;28;20739;-72
2021/12/13 19:41:40;;;;;;;14.43;7.43;;;9.10;99.90;;;;;;10397820;28;20234;-71
2021/12/13 19:46:47;;;;;;;9.30;6.93;;;9.10;99.90;;;;;;10391983;28;20219;-71
2021/12/13 19:52:16;;;;;;;10.43;6.80;;;9.10;99.90;;;;;;10405375;28;20309;-71
2021/12/13 19:57:23;;;;;;;9.50;6.83;;;9.10;99.90;;;;;;10369757;28;20625;-70
2021/12/13 20:02:33;;;;;;;11.63;8.63;;;9.10;99.90;;;;;;10393291;28;20682;-71
2021/12/13 20:07:50;;;;;;;13.77;9.93;;;9.10;99.90;;;;;;10386519;28;20660;-71
2021/12/13 20:13:03;;;;;;;9.87;7.43;;;9.10;99.90;;;;;;10388833;28;20227;-74
2021/12/13 20:18:13;;;;;;;12.13;8.90;;;9.10;99.90;;;;;;10398612;28;20311;-70
2021/12/13 20:23:23;;;;;;;13.23;8.67;;;9.10;99.90;;;;;;10405748;28;20224;-71
2021/12/13 20:28:42;;;;;;;10.40;6.93;;;9.00;99.90;;;;;;10403767;28;20322;-71
2021/12/13 20:33:51;;;;;;;11.67;9.13;;;9.00;99.90;;;;;;10388929;28;20212;-72
2021/12/13 20:39:08;;;;;;;12.27;9.20;;;8.90;99.90;;;;;;10391212;28;20305;-70
2021/12/13 20:44:33;;;;;;;13.93;7.97;;;9.00;99.90;;;;;;10399524;28;20305;-72
2021/12/13 20:49:37;;;;;;;10.60;7.60;;;8.90;99.90;;;;;;10398566;28;20306;-72
2021/12/13 20:54:44;;;;;;;9.57;7.80;;;9.00;99.90;;;;;;10402314;28;20320;-72
2021/12/13 20:59:49;;;;;;;10.63;6.97;;;8.90;99.90;;;;;;10388546;28;20314;-70
2021/12/13 21:04:55;;;;;;;14.50;9.90;;;9.00;99.90;;;;;;10389997;28;20222;-70
2021/12/13 21:10:05;;;;;;;13.93;10.67;;;9.00;99.90;;;;;;10402753;28;20579;-70
2021/12/13 21:15:11;;;;;;;12.37;10.37;;;9.00;99.90;;;;;;10377788;28;20250;-71
2021/12/13 21:20:33;;;;;;;11.97;8.97;;;9.00;99.90;;;;;;10391009;28;20222;-71
2021/12/13 21:25:39;;;;;;;14.90;10.70;;;9.00;99.90;;;;;;10384151;28;20899;-70
2021/12/13 21:30:46;;;;;;;17.70;13.00;;;9.00;99.90;;;;;;10397757;28;20304;-71
2021/12/13 21:35:58;;;;;;;34.37;21.13;;;9.00;99.90;;;;;;10401787;28;20760;-71
2021/12/13 21:41:28;;;;;;;26.23;16.00;;;9.00;99.90;;;;;;10392296;28;20231;-72
2021/12/13 21:46:37;;;;;;;19.67;14.57;;;9.00;99.90;;;;;;10394459;28;20239;-71
2021/12/13 21:51:52;;;;;;;18.57;13.70;;;9.00;99.90;;;;;;10379004;28;20282;-71
2021/12/13 21:57:00;;;;;;;16.80;12.83;;;9.00;99.90;;;;;;10385196;28;20752;-71
2021/12/13 22:02:07;;;;;;;15.53;11.43;;;9.00;99.90;;;;;;10386598;28;20231;-70
2021/12/13 22:07:13;;;;;;;21.13;11.00;;;9.00;99.90;;;;;;10400274;28;20242;-71
2021/12/13 22:12:26;;;;;;;15.00;10.93;;;9.10;99.90;;;;;;10393135;28;20572;-71
2021/12/13 22:17:41;;;;;;;14.93;11.70;;;9.10;99.90;;;;;;10395069;28;20306;-71
2021/12/13 22:22:44;;;;;;;14.23;10.33;;;9.10;99.90;;;;;;10406249;28;20229;-71
2021/12/13 22:27:47;;;;;;;12.47;10.57;;;9.10;99.90;;;;;;10400233;28;20226;-72
2021/12/13 22:32:50;;;;;;;13.67;10.37;;;9.10;99.90;;;;;;10399886;28;20701;-72
2021/12/13 22:38:00;;;;;;;12.80;10.10;;;9.10;99.90;;;;;;10389439;28;20224;-72
2021/12/13 22:43:10;;;;;;;12.77;9.97;;;9.00;99.90;;;;;;10401693;28;20234;-71
2021/12/13 22:48:14;;;;;;;13.83;10.13;;;9.00;99.90;;;;;;10385065;28;20273;-71
2021/12/13 22:53:16;;;;;;;10.90;9.07;;;9.00;99.90;;;;;;10393947;28;20752;-71
2021/12/13 22:58:21;;;;;;;10.77;8.43;;;9.00;99.90;;;;;;10397944;28;20235;-71
2021/12/13 23:03:27;;;;;;;11.53;9.37;;;8.90;99.90;;;;;;10382596;28;20257;-70
2021/12/13 23:08:30;;;;;;;11.07;8.60;;;8.90;99.90;;;;;;10401680;28;20560;-69
2021/12/13 23:13:56;;;;;;;9.53;8.27;;;8.90;99.90;;;;;;10403772;28;20217;-70
2021/12/13 23:19:02;;;;;;;10.27;7.97;;;8.90;99.90;;;;;;10389056;28;20258;-71
2021/12/13 23:24:05;;;;;;;14.37;8.90;;;8.90;99.90;;;;;;10389674;28;20300;-72
2021/12/13 23:29:13;;;;;;;11.27;8.73;;;8.90;99.90;;;;;;10402896;28;20247;-71
2021/12/13 23:34:14;;;;;;;12.77;9.50;;;8.80;99.90;;;;;;10389914;28;20654;-71
2021/12/13 23:50:14;;;;;;;11.97;9.03;;;8.80;99.90;;;;;;10390217;28;20219;-71
2021/12/13 23:55:30;;;;;;;12.77;10.00;;;8.80;99.90;;;;;;10383870;28;20203;-70
